Time;durP1;ratioP1;P1;durP2;ratioP2;P2;SDS_P1;SDS_P2;PMS_P1;PMS_P2;Temp;Humidity;BMP_temperature;BMP_pressure;BME280_temperature;BME280_humidity;BME280_pressure;Samples;Min_cycle;Max_cycle;Signal;HPM_P1;HPM_P2
2024/02/03 00:01:49;;;;;;;;;;;;;;;8.66;58.47;101982.81;5101497;28;19912;-78
2024/02/03 00:04:44;;;;;;;;;;;;;;;8.61;58.41;101979.28;5098792;28;19912;-79
2024/02/03 00:07:36;;;;;;;;;;;;;;;8.61;58.10;101979.28;5096156;28;19912;-78
2024/02/03 00:10:28;;;;;;;;;;;;;;;8.59;58.34;101971.41;5100874;28;19916;-77
2024/02/03 00:13:20;;;;;;;;;;;;;;;8.55;58.79;101964.91;5098239;28;20384;-77
2024/02/03 00:16:12;;;;;;;;;;;;;;;8.47;59.07;101962.75;5095545;28;19912;-78
2024/02/03 00:19:02;;;;;;;;;;;;;;;8.33;58.59;101956.25;5099700;28;19916;-77
2024/02/03 00:21:55;;;;;;;;;;;;;;;8.20;59.09;101962.94;5095717;28;19959;-78
2024/02/03 00:24:47;;;;;;;;;;;;;;;8.05;60.11;101954.78;5101663;28;19912;-78
2024/02/03 00:27:39;;;;;;;;;;;;;;;8.11;59.67;101953.72;5098909;28;19919;-77
2024/02/03 00:30:31;;;;;;;;;;;;;;;8.17;59.97;101966.22;5096809;28;19942;-79
2024/02/03 00:33:20;;;;;;;;;;;;;;;8.10;59.53;101957.50;5099867;28;19912;-77
2024/02/03 00:36:21;;;;;;;;;;;;;;;8.06;59.47;101961.84;5097795;28;19911;-78
2024/02/03 00:39:13;;;;;;;;;;;;;;;8.08;59.56;101962.38;5102184;28;19912;-78
2024/02/03 00:42:05;;;;;;;;;;;;;;;8.09;59.39;101959.41;5098941;28;19911;-77
2024/02/03 00:44:57;;;;;;;;;;;;;;;8.13;59.60;101962.38;5096415;28;19912;-78
2024/02/03 00:47:49;;;;;;;;;;;;;;;8.16;59.89;101962.69;5097705;28;19912;-78
2024/02/03 00:50:41;;;;;;;;;;;;;;;8.20;60.12;101960.25;5097682;28;20387;-77
2024/02/03 00:53:33;;;;;;;;;;;;;;;8.21;60.10;101956.47;5095720;28;19912;-78
2024/02/03 00:56:25;;;;;;;;;;;;;;;8.28;59.75;101948.88;5099407;28;20300;-78
2024/02/03 00:59:15;;;;;;;;;;;;;;;8.30;60.52;101946.75;5096976;28;20296;-77
2024/02/03 01:02:07;;;;;;;;;;;;;;;8.22;59.78;101955.38;5094977;28;19915;-78
2024/02/03 01:04:56;;;;;;;;;;;;;;;8.25;60.08;101959.44;5098457;28;19912;-77
2024/02/03 01:07:48;;;;;;;;;;;;;;;8.16;59.72;101951.84;5096869;28;19912;-78
2024/02/03 01:10:40;;;;;;;;;;;;;;;8.18;60.02;101958.91;5100352;28;20444;-78
2024/02/03 01:13:29;;;;;;;;;;;;;;;8.18;60.24;101960.50;5097280;28;19916;-77
2024/02/03 01:16:21;;;;;;;;;;;;;;;8.18;60.38;101948.06;5094843;28;19916;-76
2024/02/03 01:19:11;;;;;;;;;;;;;;;8.11;60.12;101951.03;5100694;28;19912;-78
2024/02/03 01:22:03;;;;;;;;;;;;;;;8.10;60.20;101957.50;5098316;28;19916;-77
2024/02/03 01:24:55;;;;;;;;;;;;;;;8.03;60.33;101959.66;5096476;28;19912;-77
2024/02/03 01:27:47;;;;;;;;;;;;;;;8.02;60.36;101956.16;5098456;28;19912;-78
2024/02/03 01:30:39;;;;;;;;;;;;;;;8.21;60.29;101950.22;5097391;28;19919;-77
2024/02/03 01:33:31;;;;;;;;;;;;;;;8.20;60.35;101941.28;5100808;28;19927;-78
2024/02/03 01:36:20;;;;;;;;;;;;;;;8.18;60.62;101938.81;5101561;28;19912;-77
2024/02/03 01:39:12;;;;;;;;;;;;;;;8.20;60.15;101938.56;5096467;28;19911;-78
2024/02/03 01:42:04;;;;;;;;;;;;;;;8.17;60.44;101936.41;5099346;28;19911;-78
2024/02/03 01:44:58;;;;;;;;;;;;;;;8.07;60.52;101948.03;5097454;28;19920;-78
2024/02/03 01:47:50;;;;;;;;;;;;;;;8.10;60.31;101946.69;5097541;28;19912;-78
2024/02/03 01:50:41;;;;;;;;;;;;;;;8.10;60.92;101949.38;5098675;28;19916;-77
2024/02/03 01:53:33;;;;;;;;;;;;;;;8.09;60.71;101945.03;5097068;28;20271;-76
2024/02/03 01:56:25;;;;;;;;;;;;;;;8.09;60.58;101937.72;5099171;28;19915;-78
2024/02/03 01:59:17;;;;;;;;;;;;;;;8.14;59.92;101939.63;5097454;28;19915;-77
2024/02/03 02:02:09;;;;;;;;;;;;;;;8.11;59.57;101940.19;5095154;28;19916;-77
2024/02/03 02:04:58;;;;;;;;;;;;;;;8.13;59.27;101938.00;5098397;28;20296;-77
2024/02/03 02:07:51;;;;;;;;;;;;;;;7.97;59.71;101934.47;5096224;28;20122;-78
2024/02/03 02:10:40;;;;;;;;;;;;;;;8.04;59.67;101936.91;5094121;28;19924;-78
2024/02/03 02:13:32;;;;;;;;;;;;;;;8.04;59.93;101942.31;5097871;28;19915;-78
2024/02/03 02:16:24;;;;;;;;;;;;;;;8.14;59.39;101934.22;5094410;28;19935;-77
2024/02/03 02:19:17;;;;;;;;;;;;;;;8.29;59.12;101936.94;5099037;28;19912;-78
2024/02/03 02:22:10;;;;;;;;;;;;;;;8.23;59.21;101934.53;5097245;28;19915;-78
2024/02/03 02:25:02;;;;;;;;;;;;;;;8.18;59.44;101937.22;5094476;28;19916;-80
2024/02/03 02:27:50;;;;;;;;;;;;;;;8.23;59.36;101935.31;5096618;28;19912;-80
2024/02/03 02:30:40;;;;;;;;;;;;;;;8.18;60.03;101938.81;5096197;28;19920;-79
2024/02/03 02:33:31;;;;;;;;;;;;;;;8.19;60.98;101923.38;5094228;28;20385;-79
2024/02/03 02:36:23;;;;;;;;;;;;;;;8.14;61.50;101916.06;5097311;28;19912;-79
2024/02/03 02:39:15;;;;;;;;;;;;;;;8.19;59.69;101923.38;5095828;28;20297;-77
2024/02/03 02:42:07;;;;;;;;;;;;;;;8.03;60.69;101916.31;5093041;28;19912;-78
2024/02/03 02:45:00;;;;;;;;;;;;;;;8.04;61.68;101920.66;5097164;28;20373;-77
2024/02/03 02:47:52;;;;;;;;;;;;;;;8.02;60.73;101917.41;5095646;28;19912;-77
2024/02/03 02:50:44;;;;;;;;;;;;;;;7.84;61.14;101915.19;5099996;28;20614;-78
2024/02/03 02:53:34;;;;;;;;;;;;;;;8.00;60.88;101914.97;5098016;28;19912;-78
2024/02/03 02:56:26;;;;;;;;;;;;;;;8.12;60.59;101912.03;5094490;28;19912;-77
2024/02/03 02:59:13;;;;;;;;;;;;;;;8.22;60.44;101903.09;5099037;28;19912;-78
2024/02/03 03:02:04;;;;;;;;;;;;;;;8.12;60.11;101902.00;5097670;28;20292;-77
2024/02/03 03:04:56;;;;;;;;;;;;;;;7.96;61.26;101896.81;5098733;28;19912;-77
2024/02/03 03:07:48;;;;;;;;;;;;;;;8.05;60.83;101893.31;5100981;28;19912;-77
2024/02/03 03:10:40;;;;;;;;;;;;;;;7.91;59.90;101884.09;5099476;28;19920;-80
2024/02/03 03:13:32;;;;;;;;;;;;;;;7.88;59.17;101883.78;5103802;28;19912;-79
2024/02/03 03:16:24;;;;;;;;;;;;;;;7.93;58.35;101890.03;5100616;28;20373;-77
2024/02/03 03:19:16;;;;;;;;;;;;;;;7.83;59.06;101897.31;5098420;28;19915;-77
2024/02/03 03:22:05;;;;;;;;;;;;;;;7.68;60.03;101890.78;5102185;28;20288;-78
2024/02/03 03:24:58;;;;;;;;;;;;;;;7.65;60.44;101885.13;5100539;28;20380;-79
2024/02/03 03:27:47;;;;;;;;;;;;;;;7.69;60.92;101883.50;5098742;28;19912;-77
2024/02/03 03:30:37;;;;;;;;;;;;;;;7.72;61.41;101881.06;5103321;28;20377;-78
2024/02/03 03:33:29;;;;;;;;;;;;;;;7.72;60.76;101877.53;5101314;28;19916;-78
2024/02/03 03:36:21;;;;;;;;;;;;;;;7.82;61.36;101869.47;5098853;28;19916;-78
2024/02/03 03:39:11;;;;;;;;;;;;;;;7.79;61.72;101867.28;5100996;28;19912;-78
2024/02/03 03:42:03;;;;;;;;;;;;;;;7.81;61.92;101854.28;5099476;28;20301;-79
2024/02/03 03:44:55;;;;;;;;;;;;;;;7.85;62.26;101859.97;5103162;28;19920;-78
2024/02/03 03:47:50;;;;;;;;;;;;;;;7.89;62.25;101859.16;5101267;28;19916;-77
2024/02/03 03:50:42;;;;;;;;;;;;;;;7.81;62.58;101867.81;5098675;28;20384;-78
2024/02/03 03:53:34;;;;;;;;;;;;;;;7.88;62.09;101870.25;5101033;28;19912;-77
2024/02/03 03:56:26;;;;;;;;;;;;;;;7.94;61.06;101867.28;5097781;28;19912;-79
2024/02/03 03:59:16;;;;;;;;;;;;;;;7.73;61.18;101862.91;5102160;28;19912;-79
2024/02/03 04:02:14;;;;;;;;;;;;;;;7.64;61.84;101859.94;5099761;28;19912;-78
2024/02/03 04:05:03;;;;;;;;;;;;;;;7.60;63.52;101861.56;5097645;28;19916;-79
2024/02/03 04:07:50;;;;;;;;;;;;;;;7.59;63.43;101853.69;5100338;28;19916;-79
2024/02/03 04:10:42;;;;;;;;;;;;;;;7.60;63.95;101853.44;5098772;28;19923;-79
2024/02/03 04:13:34;;;;;;;;;;;;;;;7.64;65.13;101859.13;5099284;28;19912;-77
2024/02/03 04:16:23;;;;;;;;;;;;;;;7.88;68.09;101857.53;5100971;28;19915;-77
2024/02/03 04:19:15;;;;;;;;;;;;;;;7.98;68.09;101862.94;5098699;28;19916;-80
2024/02/03 04:22:05;;;;;;;;;;;;;;;8.02;67.65;101868.66;5097319;28;19916;-77
2024/02/03 04:24:58;;;;;;;;;;;;;;;7.79;65.29;101863.75;5100455;28;19916;-77
2024/02/03 04:27:50;;;;;;;;;;;;;;;7.86;65.90;101864.31;5097557;28;20388;-78
2024/02/03 04:30:42;;;;;;;;;;;;;;;7.86;65.89;101858.91;5100751;28;19920;-76
2024/02/03 04:33:31;;;;;;;;;;;;;;;7.85;64.87;101863.50;5100262;28;19939;-76
2024/02/03 04:36:23;;;;;;;;;;;;;;;7.82;64.98;101858.63;5097190;28;20380;-77
2024/02/03 04:39:15;;;;;;;;;;;;;;;7.82;64.47;101846.97;5101143;28;19912;-78
2024/02/03 04:42:07;;;;;;;;;;;;;;;7.77;64.34;101850.50;5098849;28;19929;-77
2024/02/03 04:44:59;;;;;;;;;;;;;;;7.67;64.55;101851.25;5097115;28;19912;-78
2024/02/03 04:47:51;;;;;;;;;;;;;;;7.71;64.59;101846.16;5100766;28;19912;-78
2024/02/03 04:50:43;;;;;;;;;;;;;;;7.50;65.36;101831.75;5096572;28;19920;-77
2024/02/03 04:53:32;;;;;;;;;;;;;;;7.54;66.65;101840.97;5100878;28;19912;-75
2024/02/03 04:56:27;;;;;;;;;;;;;;;7.56;67.05;101841.53;5098418;28;20284;-78
2024/02/03 04:59:19;;;;;;;;;;;;;;;7.57;66.20;101840.41;5096661;28;19912;-77
2024/02/03 05:02:11;;;;;;;;;;;;;;;7.54;65.31;101834.72;5099877;28;19912;-80
2024/02/03 05:05:03;;;;;;;;;;;;;;;7.41;64.52;101837.97;5098028;28;19912;-77
2024/02/03 05:07:52;;;;;;;;;;;;;;;7.25;64.93;101842.50;5093888;28;19920;-80
2024/02/03 05:10:44;;;;;;;;;;;;;;;7.28;65.90;101833.84;5100343;28;19916;-78
2024/02/03 05:13:33;;;;;;;;;;;;;;;7.16;65.20;101830.56;5097787;28;19916;-77
2024/02/03 05:16:25;;;;;;;;;;;;;;;7.20;64.59;101835.19;5100331;28;19915;-79
2024/02/03 05:19:17;;;;;;;;;;;;;;;7.22;64.11;101843.84;5093387;28;20393;-78
2024/02/03 05:22:10;;;;;;;;;;;;;;;7.36;63.66;101833.34;5093853;28;20288;-77
2024/02/03 05:24:59;;;;;;;;;;;;;;;7.47;63.84;101826.03;5099545;28;19916;-77
2024/02/03 05:27:51;;;;;;;;;;;;;;;7.53;63.39;101817.69;5097413;28;19915;-80
2024/02/03 05:30:43;;;;;;;;;;;;;;;7.40;64.03;101829.03;5095194;28;19916;-79
2024/02/03 05:33:30;;;;;;;;;;;;;;;7.15;65.61;101826.25;5097702;28;19912;-79
2024/02/03 05:36:20;;;;;;;;;;;;;;;7.23;66.16;101828.41;5094865;28;19915;-79
2024/02/03 05:39:11;;;;;;;;;;;;;;;7.18;65.91;101831.94;5091359;28;19920;-80
2024/02/03 05:42:03;;;;;;;;;;;;;;;7.20;66.03;101840.59;5097723;28;19911;-76
2024/02/03 05:44:55;;;;;;;;;;;;;;;7.10;64.79;101837.03;5093724;28;19912;-79
2024/02/03 05:47:47;;;;;;;;;;;;;;;7.16;64.17;101841.41;5097224;28;19912;-77
2024/02/03 05:50:39;;;;;;;;;;;;;;;7.10;66.03;101845.97;5096442;28;19920;-77
2024/02/03 05:53:35;;;;;;;;;;;;;;;6.94;67.35;101835.34;5089072;28;19916;-77
2024/02/03 05:56:26;;;;;;;;;;;;;;;6.95;68.80;101843.19;5098109;28;19912;-78
2024/02/03 05:59:19;;;;;;;;;;;;;;;7.04;68.52;101840.78;5095392;28;20285;-79
2024/02/03 06:02:11;;;;;;;;;;;;;;;7.10;68.45;101850.56;5098520;28;19912;-79
2024/02/03 06:05:03;;;;;;;;;;;;;;;7.11;67.06;101852.19;5098034;28;19912;-76
2024/02/03 06:07:55;;;;;;;;;;;;;;;6.97;65.43;101851.03;5076156;28;19916;-78
2024/02/03 06:10:47;;;;;;;;;;;;;;;6.76;66.20;101855.50;5079026;28;19916;-78
2024/02/03 06:13:39;;;;;;;;;;;;;;;6.83;65.51;101851.50;5076665;28;19920;-76
2024/02/03 06:16:31;;;;;;;;;;;;;;;6.75;64.47;101854.72;5075462;28;19913;-78
2024/02/03 06:19:23;;;;;;;;;;;;;;;6.74;64.13;101858.50;5080643;28;19912;-77
2024/02/03 06:22:15;;;;;;;;;;;;;;;6.77;66.99;101846.31;5080831;28;19916;-78
2024/02/03 06:25:08;;;;;;;;;;;;;;;6.87;67.32;101839.09;5072743;28;20376;-78
2024/02/03 06:28:00;;;;;;;;;;;;;;;6.92;66.02;101837.47;5079660;28;19916;-78
2024/02/03 06:30:49;;;;;;;;;;;;;;;6.78;67.70;101843.38;5095477;28;19920;-78
2024/02/03 06:33:41;;;;;;;;;;;;;;;6.78;67.32;101835.25;5100796;28;19916;-77
2024/02/03 06:36:33;;;;;;;;;;;;;;;6.68;67.29;101837.09;5100071;28;19912;-77
2024/02/03 06:39:25;;;;;;;;;;;;;;;6.76;68.66;101842.81;5103332;28;19912;-77
2024/02/03 06:42:18;;;;;;;;;;;;;;;6.60;67.09;101841.13;5102955;28;19912;-78
2024/02/03 06:45:07;;;;;;;;;;;;;;;5.96;67.48;101841.16;5098773;28;19916;-76
2024/02/03 06:47:59;;;;;;;;;;;;;;;5.20;71.27;101850.31;5096356;28;19912;-77
2024/02/03 06:50:51;;;;;;;;;;;;;;;5.09;73.05;101846.66;5099959;28;20373;-79
2024/02/03 06:53:41;;;;;;;;;;;;;;;4.94;73.93;101841.09;5097241;28;19912;-78
2024/02/03 06:56:35;;;;;;;;;;;;;;;4.93;74.59;101839.44;5100884;28;19912;-78
2024/02/03 06:59:25;;;;;;;;;;;;;;;5.01;73.52;101839.03;5099201;28;19912;-78
2024/02/03 07:02:17;;;;;;;;;;;;;;;5.12;71.57;101845.38;5096122;28;19916;-80
2024/02/03 07:05:09;;;;;;;;;;;;;;;5.03;71.40;101842.28;5099370;28;20380;-78
2024/02/03 07:08:01;;;;;;;;;;;;;;;5.16;70.71;101850.00;5094722;28;19915;-79
2024/02/03 07:10:53;;;;;;;;;;;;;;;4.93;70.82;101842.16;5091642;28;19920;-79
2024/02/03 07:13:45;;;;;;;;;;;;;;;4.99;71.46;101845.72;5094122;28;19916;-78
2024/02/03 07:16:37;;;;;;;;;;;;;;;5.14;70.18;101849.44;5095704;28;19916;-78
2024/02/03 07:19:29;;;;;;;;;;;;;;;5.18;70.12;101838.16;5100276;28;19911;-78
2024/02/03 07:22:21;;;;;;;;;;;;;;;5.15;69.94;101837.59;5099533;28;19915;-77
2024/02/03 07:25:12;;;;;;;;;;;;;;;4.84;70.23;101826.66;5097879;28;19912;-77
2024/02/03 07:28:02;;;;;;;;;;;;;;;4.30;72.28;101829.97;5099852;28;19912;-75
2024/02/03 07:30:54;;;;;;;;;;;;;;;3.97;74.10;101837.19;5100057;28;19916;-77
2024/02/03 07:33:43;;;;;;;;;;;;;;;4.32;73.43;101841.28;5097121;28;19915;-77
2024/02/03 07:36:35;;;;;;;;;;;;;;;4.53;73.25;101837.00;5120221;28;19912;-77
2024/02/03 07:39:27;;;;;;;;;;;;;;;4.08;72.92;101831.75;5099187;28;19916;-76
2024/02/03 07:42:19;;;;;;;;;;;;;;;4.35;72.86;101834.59;5101843;28;19912;-78
2024/02/03 07:45:11;;;;;;;;;;;;;;;4.46;72.92;101825.63;5095003;28;19912;-76
2024/02/03 07:48:03;;;;;;;;;;;;;;;4.57;73.55;101823.91;5098306;28;19920;-76
2024/02/03 07:50:54;;;;;;;;;;;;;;;4.83;72.17;101838.50;5104001;28;19915;-76
2024/02/03 07:53:46;;;;;;;;;;;;;;;4.93;72.66;101836.75;5101235;28;19916;-76
2024/02/03 07:56:38;;;;;;;;;;;;;;;5.15;71.03;101839.47;5097568;28;19912;-78
2024/02/03 07:59:30;;;;;;;;;;;;;;;5.34;71.81;101831.84;5079495;28;19912;-77
2024/02/03 08:02:22;;;;;;;;;;;;;;;5.59;70.89;101827.53;5077437;28;20308;-78
2024/02/03 08:05:14;;;;;;;;;;;;;;;5.83;70.14;101819.97;5081910;28;20304;-76
2024/02/03 08:08:05;;;;;;;;;;;;;;;5.94;69.73;101821.69;5091913;28;20388;-78
2024/02/03 08:11:00;;;;;;;;;;;;;;;6.12;69.43;101820.50;5097982;28;19945;-77
2024/02/03 08:13:53;;;;;;;;;;;;;;;6.03;70.46;101818.53;5096755;28;19916;-77
2024/02/03 08:16:45;;;;;;;;;;;;;;;6.24;71.36;101807.63;5088632;28;19912;-76
2024/02/03 08:19:39;;;;;;;;;;;;;;;6.31;71.62;101820.91;5094537;28;19920;-76
2024/02/03 08:22:31;;;;;;;;;;;;;;;6.54;71.55;101820.53;5095952;28;19912;-78
2024/02/03 08:25:20;;;;;;;;;;;;;;;6.65;71.37;101819.53;5092010;28;20377;-82
2024/02/03 08:28:15;;;;;;;;;;;;;;;6.87;71.01;101811.22;5093249;28;19920;-79
2024/02/03 08:31:05;;;;;;;;;;;;;;;7.11;70.36;101815.13;5092064;28;20012;-81
2024/02/03 08:33:57;;;;;;;;;;;;;;;7.42;70.00;101818.72;5088615;28;19916;-78
2024/02/03 08:36:47;;;;;;;;;;;;;;;7.56;69.15;101814.47;5097019;28;20308;-79
2024/02/03 08:39:36;;;;;;;;;;;;;;;7.66;68.31;101824.47;5093349;28;20377;-78
2024/02/03 08:42:28;;;;;;;;;;;;;;;7.72;66.40;101826.91;5095406;28;20296;-78
2024/02/03 08:45:17;;;;;;;;;;;;;;;7.52;66.87;101824.16;5097078;28;20507;-79
2024/02/03 08:48:09;;;;;;;;;;;;;;;7.20;67.47;101823.56;5095261;28;20301;-79
2024/02/03 08:51:01;;;;;;;;;;;;;;;6.93;69.98;101831.00;5102680;28;19916;-80
2024/02/03 08:53:51;;;;;;;;;;;;;;;7.44;68.57;101832.00;5097033;28;19912;-80
2024/02/03 08:56:43;;;;;;;;;;;;;;;7.65;67.17;101825.56;5095382;28;19915;-77
2024/02/03 08:59:35;;;;;;;;;;;;;;;7.48;69.03;101814.97;5097552;28;19916;-81
2024/02/03 09:02:27;;;;;;;;;;;;;;;7.96;68.27;101821.81;5095474;28;19912;-81
2024/02/03 09:05:19;;;;;;;;;;;;;;;8.02;67.02;101825.34;5099433;28;19915;-78
2024/02/03 09:08:11;;;;;;;;;;;;;;;8.23;67.40;101826.16;5115276;28;20304;-78
2024/02/03 09:11:03;;;;;;;;;;;;;;;8.37;65.82;101832.66;5115157;28;19923;-78
2024/02/03 09:13:55;;;;;;;;;;;;;;;8.28;66.74;101843.19;5106517;28;19916;-77
2024/02/03 09:16:49;;;;;;;;;;;;;;;8.60;65.11;101832.06;5092963;28;20381;-79
2024/02/03 09:19:38;;;;;;;;;;;;;;;8.73;64.23;101839.66;5099716;28;19912;-78
2024/02/03 09:22:30;;;;;;;;;;;;;;;8.98;63.49;101845.00;5077445;28;19912;-80
2024/02/03 09:25:20;;;;;;;;;;;;;;;8.97;62.55;101848.78;5080554;28;20488;-77
2024/02/03 09:28:12;;;;;;;;;;;;;;;9.10;61.34;101851.97;5093637;28;20368;-79
2024/02/03 09:31:04;;;;;;;;;;;;;;;9.18;61.37;101854.13;5097337;28;19916;-77
2024/02/03 09:33:56;;;;;;;;;;;;;;;9.18;60.92;101854.13;5094824;28;19912;-77
2024/02/03 09:36:48;;;;;;;;;;;;;;;9.37;60.99;101860.56;5098405;28;19916;-76
2024/02/03 09:39:40;;;;;;;;;;;;;;;9.53;61.39;101859.41;5088992;28;19912;-76
2024/02/03 09:42:33;;;;;;;;;;;;;;;9.48;60.27;101866.75;5091737;28;19912;-77
2024/02/03 09:45:26;;;;;;;;;;;;;;;9.52;60.65;101865.91;5093463;28;19916;-77
2024/02/03 09:48:18;;;;;;;;;;;;;;;9.61;60.46;101857.97;5093163;28;19920;-77
2024/02/03 09:51:10;;;;;;;;;;;;;;;9.69;60.97;101860.13;5092170;28;19920;-78
2024/02/03 09:54:02;;;;;;;;;;;;;;;9.85;61.27;101862.44;5093824;28;20304;-77
2024/02/03 09:56:54;;;;;;;;;;;;;;;10.08;59.85;101862.84;5092190;28;20288;-77
2024/02/03 09:59:44;;;;;;;;;;;;;;;10.16;61.01;101863.06;5092237;28;19920;-77
2024/02/03 10:02:37;;;;;;;;;;;;;;;10.07;60.74;101866.63;5095214;28;19912;-77
2024/02/03 10:05:29;;;;;;;;;;;;;;;10.25;60.56;101882.31;5072523;28;19912;-77
2024/02/03 10:08:21;;;;;;;;;;;;;;;10.19;60.28;101875.28;5075548;28;19913;-77
2024/02/03 10:11:12;;;;;;;;;;;;;;;10.36;60.92;101874.88;5075225;28;19917;-77
2024/02/03 10:14:08;;;;;;;;;;;;;;;10.61;59.58;101866.50;5071443;28;19912;-78
2024/02/03 10:16:59;;;;;;;;;;;;;;;10.96;58.19;101862.56;5074583;28;20366;-79
2024/02/03 10:19:51;;;;;;;;;;;;;;;11.13;57.03;101865.63;5073039;28;19916;-79
2024/02/03 10:22:43;;;;;;;;;;;;;;;11.38;55.22;101864.50;5076556;28;19916;-79
2024/02/03 10:25:35;;;;;;;;;;;;;;;11.78;55.60;101879.53;5084607;28;20471;-80
2024/02/03 10:28:24;;;;;;;;;;;;;;;11.93;54.29;101871.94;5091143;28;19916;-79
2024/02/03 10:31:14;;;;;;;;;;;;;;;12.02;54.07;101868.53;5097772;28;19916;-81
2024/02/03 10:34:09;;;;;;;;;;;;;;;12.25;53.20;101867.59;5097601;28;19916;-79
2024/02/03 10:37:01;;;;;;;;;;;;;;;12.49;52.71;101864.75;5089236;28;19916;-80
2024/02/03 10:39:53;;;;;;;;;;;;;;;13.00;51.02;101862.72;5094238;28;20320;-78
2024/02/03 10:42:45;;;;;;;;;;;;;;;13.15;50.50;101854.25;5089328;28;19912;-79
2024/02/03 10:45:36;;;;;;;;;;;;;;;13.30;50.23;101842.19;5094855;28;19916;-79
2024/02/03 10:48:29;;;;;;;;;;;;;;;13.42;49.16;101847.09;5092432;28;20368;-79
2024/02/03 10:51:25;;;;;;;;;;;;;;;13.40;49.21;101839.22;5091676;28;19920;-78
2024/02/03 10:54:17;;;;;;;;;;;;;;;13.90;48.27;101836.44;5095689;28;19912;-80
2024/02/03 10:57:10;;;;;;;;;;;;;;;13.88;47.88;101827.72;5092672;28;20369;-79
2024/02/03 11:00:03;;;;;;;;;;;;;;;14.37;47.10;101826.84;5090990;28;19916;-81
2024/02/03 11:02:55;;;;;;;;;;;;;;;14.70;46.35;101813.63;5094534;28;19912;-79
2024/02/03 11:05:47;;;;;;;;;;;;;;;14.77;45.30;101806.56;5091969;28;19916;-80
2024/02/03 11:08:37;;;;;;;;;;;;;;;15.03;44.57;101800.38;5091513;28;19916;-80
2024/02/03 11:11:32;;;;;;;;;;;;;;;15.47;42.37;101802.84;5093944;28;19916;-80
2024/02/03 11:14:21;;;;;;;;;;;;;;;15.99;42.07;101791.91;5090907;28;20300;-79
2024/02/03 11:17:20;;;;;;;;;;;;;;;16.19;41.06;101786.53;5091065;28;19920;-79
2024/02/03 11:20:19;;;;;;;;;;;;;;;16.01;41.76;101790.44;5089793;28;19912;-79
2024/02/03 11:23:15;;;;;;;;;;;;;;;16.44;41.15;101793.06;5095826;28;19912;-80
2024/02/03 11:26:05;;;;;;;;;;;;;;;16.87;39.55;101783.84;5097042;28;19911;-78
2024/02/03 11:28:57;;;;;;;;;;;;;;;17.49;37.99;101789.44;5094193;28;19916;-80
2024/02/03 11:31:49;;;;;;;;;;;;;;;18.04;37.09;101778.13;5099210;28;19915;-79
2024/02/03 11:34:41;;;;;;;;;;;;;;;18.27;36.80;101779.34;5096507;28;19912;-79
2024/02/03 11:37:33;;;;;;;;;;;;;;;18.37;35.82;101775.34;5093678;28;19920;-80
2024/02/03 11:40:23;;;;;;;;;;;;;;;18.98;34.59;101778.16;5090394;28;19912;-81
2024/02/03 11:43:16;;;;;;;;;;;;;;;19.04;33.10;101774.00;5094834;28;19912;-79
2024/02/03 11:46:11;;;;;;;;;;;;;;;19.54;32.27;101773.56;5099105;28;20372;-79
2024/02/03 11:49:03;;;;;;;;;;;;;;;19.79;32.39;101774.28;5097022;28;20304;-79
2024/02/03 11:51:59;;;;;;;;;;;;;;;20.17;31.64;101771.78;5094462;28;19916;-79
2024/02/03 11:54:49;;;;;;;;;;;;;;;19.73;32.32;101770.97;5097879;28;19912;-79
2024/02/03 11:57:42;;;;;;;;;;;;;;;20.54;31.28;101761.31;5094053;28;19912;-77
2024/02/03 12:00:34;;;;;;;;;;;;;;;21.24;30.14;101758.63;5093271;28;19920;-78
2024/02/03 12:03:23;;;;;;;;;;;;;;;20.72;30.25;101745.19;5091221;28;19911;-78
2024/02/03 12:06:13;;;;;;;;;;;;;;;21.01;30.64;101741.09;5098483;28;19911;-79
2024/02/03 12:09:02;;;;;;;;;;;;;;;20.57;30.37;101740.47;5097237;28;19912;-79
2024/02/03 12:11:53;;;;;;;;;;;;;;;21.71;29.75;101742.63;5094429;28;19919;-79
2024/02/03 12:14:42;;;;;;;;;;;;;;;20.28;31.19;101733.38;5092815;28;19912;-79
2024/02/03 12:17:35;;;;;;;;;;;;;;;21.06;31.10;101733.31;5086799;28;19916;-79
2024/02/03 12:20:26;;;;;;;;;;;;;;;21.38;29.62;101730.47;5089492;28;19912;-80
2024/02/03 12:23:18;;;;;;;;;;;;;;;22.77;28.04;101723.50;5094160;28;20381;-79
2024/02/03 12:26:10;;;;;;;;;;;;;;;23.79;26.28;101726.84;5089753;28;19916;-80
2024/02/03 12:29:02;;;;;;;;;;;;;;;24.49;25.45;101715.59;5096317;28;20296;-78
2024/02/03 12:31:57;;;;;;;;;;;;;;;25.90;23.49;101718.34;5093738;28;19923;-79
2024/02/03 12:34:52;;;;;;;;;;;;;;;27.10;22.58;101706.31;5088270;28;19920;-80
2024/02/03 12:37:44;;;;;;;;;;;;;;;28.35;21.35;101707.19;5094514;28;19939;-77
2024/02/03 12:40:36;;;;;;;;;;;;;;;29.79;19.35;101705.97;5094640;28;19916;-80
2024/02/03 12:43:28;;;;;;;;;;;;;;;29.36;19.55;101699.38;5085361;28;19911;-79
2024/02/03 12:46:20;;;;;;;;;;;;;;;32.33;16.84;101704.97;5096492;28;19911;-80
2024/02/03 12:49:12;;;;;;;;;;;;;;;33.79;14.92;101708.06;5090004;28;19912;-77
2024/02/03 12:52:04;;;;;;;;;;;;;;;34.75;14.76;101708.47;5097452;28;20297;-80
2024/02/03 12:54:54;;;;;;;;;;;;;;;32.53;16.64;101694.38;5095103;28;19916;-80
2024/02/03 12:57:44;;;;;;;;;;;;;;;32.28;16.76;101685.78;5093965;28;20583;-80
2024/02/03 13:00:33;;;;;;;;;;;;;;;32.08;16.89;101680.22;5098392;28;20111;-81
2024/02/03 13:03:25;;;;;;;;;;;;;;;33.65;15.61;101685.91;5089365;28;19916;-81
2024/02/03 13:06:17;;;;;;;;;;;;;;;30.93;17.60;101677.53;5088709;28;19915;-79
2024/02/03 13:09:09;;;;;;;;;;;;;;;31.21;17.16;101664.94;5080317;28;20301;-80
2024/02/03 13:12:03;;;;;;;;;;;;;;;32.65;16.67;101670.34;5091578;28;19916;-79
2024/02/03 13:14:55;;;;;;;;;;;;;;;31.60;17.07;101672.53;5090495;28;20380;-80
2024/02/03 13:17:47;;;;;;;;;;;;;;;29.14;19.40;101654.78;5090616;28;19916;-79
2024/02/03 13:20:36;;;;;;;;;;;;;;;31.24;17.32;101655.63;5086913;28;19916;-78
2024/02/03 13:23:28;;;;;;;;;;;;;;;32.22;16.75;101653.75;5083438;28;19912;-81
2024/02/03 13:26:20;;;;;;;;;;;;;;;32.32;16.28;101651.91;5094483;28;19920;-79
2024/02/03 13:29:12;;;;;;;;;;;;;;;30.33;18.20;101646.97;5090439;28;19912;-79
2024/02/03 13:32:02;;;;;;;;;;;;;;;32.38;16.59;101634.03;5092042;28;19920;-80
2024/02/03 13:34:54;;;;;;;;;;;;;;;33.71;15.49;101649.50;5094394;28;19923;-80
2024/02/03 13:37:45;;;;;;;;;;;;;;;32.40;16.91;101645.66;5091754;28;19916;-79
2024/02/03 13:40:37;;;;;;;;;;;;;;;33.23;15.92;101630.81;5095742;28;20384;-79
2024/02/03 13:43:29;;;;;;;;;;;;;;;32.41;17.14;101640.81;5093454;28;19912;-79
2024/02/03 13:46:21;;;;;;;;;;;;;;;33.91;15.42;101644.38;5095737;28;19920;-79
2024/02/03 13:49:13;;;;;;;;;;;;;;;33.89;15.30;101627.09;5095053;28;19915;-78
2024/02/03 13:52:02;;;;;;;;;;;;;;;34.23;15.05;101634.84;5090585;28;19936;-79
2024/02/03 13:54:54;;;;;;;;;;;;;;;33.16;15.66;101626.22;5093097;28;19916;-79
2024/02/03 13:57:41;;;;;;;;;;;;;;;29.72;19.04;101625.53;5088879;28;19912;-79
2024/02/03 14:00:31;;;;;;;;;;;;;;;31.67;17.42;101621.75;5085173;28;19912;-78
2024/02/03 14:03:18;;;;;;;;;;;;;;;32.19;17.34;101618.84;5086606;28;19912;-78
2024/02/03 14:06:07;;;;;;;;;;;;;;;28.54;20.31;101619.09;5086874;28;19916;-81
2024/02/03 14:09:04;;;;;;;;;;;;;;;26.54;22.82;101620.72;5077073;28;20376;-80
2024/02/03 14:11:54;;;;;;;;;;;;;;;26.63;23.07;101628.66;5089822;28;20301;-78
2024/02/03 14:14:43;;;;;;;;;;;;;;;27.89;22.10;101626.44;5080243;28;19912;-79
2024/02/03 14:17:33;;;;;;;;;;;;;;;30.06;19.36;101633.03;5090737;28;19912;-80
2024/02/03 14:20:24;;;;;;;;;;;;;;;29.23;19.81;101620.63;5094703;28;19916;-80
2024/02/03 14:23:16;;;;;;;;;;;;;;;28.19;21.29;101613.84;5092514;28;19912;-80
2024/02/03 14:26:08;;;;;;;;;;;;;;;28.82;21.15;101604.78;5095938;28;19916;-80
2024/02/03 14:28:58;;;;;;;;;;;;;;;29.85;20.03;101614.53;5091486;28;19911;-79
2024/02/03 14:31:50;;;;;;;;;;;;;;;28.89;20.25;101598.28;5092038;28;19916;-79
2024/02/03 14:34:43;;;;;;;;;;;;;;;29.66;20.26;101607.59;5098493;28;20377;-79
2024/02/03 14:37:35;;;;;;;;;;;;;;;28.06;21.65;101600.34;5093460;28;19911;-80
2024/02/03 14:40:24;;;;;;;;;;;;;;;26.84;23.52;101595.09;5097129;28;20289;-80
2024/02/03 14:43:16;;;;;;;;;;;;;;;28.44;21.73;101592.78;5091279;28;19920;-78
2024/02/03 14:46:06;;;;;;;;;;;;;;;25.35;25.08;101578.47;5084558;28;19920;-79
2024/02/03 14:48:58;;;;;;;;;;;;;;;26.17;24.16;101576.53;5089815;28;19915;-80